Terminal Aerodrome Forecast
Issued by NWS Bismarck, ND

Home | Current Version | Previous Version | Graphics & Text | Print | Product List | Glossary On
Versions: 1 2 3 4 5 6 7 8 9 10 11 12 13 14 15
000
FTUS43 KBIS 231726
TAFISN
TAF
KISN 231726Z 2318/2418 02008KT P6SM BKN200
     FM240200 03006KT 3SM BR BKN110
     FM240800 VRB03KT 1 1/2SM BR SCT015 SCT080
     FM241200 VRB03KT 3SM BR BKN015
     FM241600 VRB03KT P6SM FEW080=

USA.gov is the U.S. government's official web portal to all federal, state and local government web resources and services.